createdAt,value
2019-03-29T00:24:26.729Z,38.37
2019-03-29T00:26:57.039Z,39.77
2019-03-29T00:29:27.395Z,31.20
2019-03-29T00:31:57.739Z,31.33
2019-03-29T00:34:28.177Z,40.63
2019-03-29T00:36:58.608Z,35.53
2019-03-29T00:39:29.141Z,28.97
2019-03-29T00:41:59.359Z,26.43
2019-03-29T00:44:29.793Z,24.40
2019-03-29T00:46:59.946Z,9.27
2019-03-29T00:49:30.387Z,12.30
2019-03-29T00:52:00.664Z,19.73
2019-03-29T00:54:31.002Z,14.90
2019-03-29T00:57:01.357Z,20.73
2019-03-29T00:59:31.756Z,30.67
2019-03-29T01:02:01.974Z,42.63
2019-03-29T01:04:32.362Z,27.70
2019-03-29T01:07:02.595Z,36.13
2019-03-29T01:09:33.053Z,29.97
2019-03-29T01:12:03.325Z,42.53
2019-03-29T01:14:33.702Z,58.40
2019-03-29T01:17:03.876Z,43.83
2019-03-29T01:19:34.435Z,24.03
2019-03-29T01:22:05.268Z,30.37
2019-03-29T02:24:50.499Z,15.93
2019-03-29T02:27:20.839Z,15.77
2019-03-29T02:29:51.289Z,18.03
2019-03-29T02:32:21.722Z,20.87
2019-03-29T02:34:52.164Z,27.30
2019-03-29T02:37:22.354Z,13.97
2019-03-29T02:39:54.708Z,18.53
2019-03-29T02:42:24.896Z,14.33
2019-03-29T02:44:55.189Z,22.00
2019-03-29T02:47:25.425Z,11.27
2019-03-29T02:49:55.850Z,17.30
2019-03-29T02:52:26.491Z,36.20
2019-03-29T02:54:56.868Z,29.47
2019-03-29T02:57:28.415Z,21.13
2019-03-29T02:59:58.792Z,31.90
2019-03-29T03:02:29.235Z,30.47
2019-03-29T03:04:59.444Z,44.27
2019-03-29T03:07:29.763Z,87.17
2019-03-29T03:10:00.042Z,14.93
2019-03-29T03:12:30.540Z,8.40
2019-03-29T03:15:01.048Z,13.33
2019-03-29T03:17:31.206Z,21.90
2019-03-29T03:20:01.660Z,10.83
2019-03-29T03:22:32.005Z,22.87
2019-03-29T04:25:41.002Z,39.07
2019-03-29T04:28:11.382Z,11.00
2019-03-29T04:30:41.659Z,16.97
2019-03-29T04:33:11.994Z,9.53
2019-03-29T04:35:42.486Z,9.23
2019-03-29T04:38:13.160Z,44.80
2019-03-29T04:40:43.589Z,48.07
2019-03-29T04:43:13.767Z,40.93
2019-03-29T04:45:44.139Z,44.10
2019-03-29T04:48:14.478Z,41.90
2019-03-29T04:50:44.808Z,46.23
2019-03-29T04:53:15.403Z,47.70
2019-03-29T04:55:45.703Z,43.67
2019-03-29T04:58:16.109Z,37.00
2019-03-29T05:00:46.604Z,45.70
2019-03-29T05:03:18.369Z,43.33
2019-03-29T05:05:48.492Z,30.07
2019-03-29T05:08:18.807Z,32.80
2019-03-29T05:14:29.933Z,28.87
2019-03-29T05:17:00.354Z,30.77
2019-03-29T05:19:30.443Z,35.30
2019-03-29T05:22:00.728Z,36.50
2019-03-29T06:25:48.700Z,49.40
2019-03-29T06:28:20.377Z,42.50
2019-03-29T06:30:50.783Z,40.00
2019-03-29T06:33:22.547Z,37.37
2019-03-29T06:35:54.895Z,34.03
2019-03-29T06:38:28.109Z,33.83
2019-03-29T06:41:03.100Z,40.87
2019-03-29T06:43:31.827Z,41.20
2019-03-29T06:46:02.092Z,36.27
2019-03-29T06:48:32.480Z,31.23
2019-03-29T06:51:02.632Z,33.40
2019-03-29T06:53:32.887Z,26.70
2019-03-29T06:56:03.199Z,22.83
2019-03-29T06:58:33.419Z,12.63
2019-03-29T07:01:03.810Z,7.77
2019-03-29T07:03:34.035Z,5.30
2019-03-29T07:06:04.497Z,6.47
2019-03-29T07:08:34.982Z,6.57
2019-03-29T07:11:16.526Z,7.87
2019-03-29T07:13:37.377Z,8.90
2019-03-29T07:16:07.909Z,12.10
2019-03-29T07:18:38.206Z,9.43
2019-03-29T07:21:20.748Z,11.67
2019-03-29T08:24:17.650Z,4.60
2019-03-29T08:26:47.974Z,5.07
2019-03-29T08:29:18.309Z,3.87
2019-03-29T08:31:48.564Z,6.13
2019-03-29T08:34:20.205Z,4.27
2019-03-29T08:36:50.510Z,5.03
2019-03-29T08:39:27.956Z,8.00
2019-03-29T08:41:59.889Z,5.20
2019-03-29T08:44:24.799Z,6.53
2019-03-29T08:46:55.088Z,7.07
2019-03-29T08:49:25.574Z,5.47
2019-03-29T08:51:56.063Z,7.67
2019-03-29T08:54:26.418Z,6.37
2019-03-29T08:56:56.915Z,6.40
2019-03-29T08:59:27.145Z,7.37
2019-03-29T09:01:57.793Z,16.90
2019-03-29T09:04:28.135Z,9.17
2019-03-29T09:06:58.634Z,7.20
2019-03-29T09:09:29.862Z,5.57
2019-03-29T09:12:13.344Z,5.73
2019-03-29T09:14:31.911Z,6.20
2019-03-29T09:17:02.337Z,11.43
2019-03-29T09:19:32.486Z,7.70
2019-03-29T09:22:02.721Z,7.80
2019-03-29T10:24:23.540Z,5.43
2019-03-29T10:26:53.946Z,8.93
2019-03-29T10:29:24.323Z,15.67
2019-03-29T10:31:54.879Z,9.23
2019-03-29T10:34:25.273Z,5.67
2019-03-29T10:36:55.621Z,6.27
2019-03-29T10:39:26.452Z,7.70
2019-03-29T10:41:56.937Z,6.13
2019-03-29T10:44:27.319Z,4.23
2019-03-29T10:46:57.907Z,10.30
2019-03-29T10:49:28.134Z,6.53
2019-03-29T10:51:58.506Z,4.77
2019-03-29T10:54:29.039Z,4.53
2019-03-29T10:56:59.571Z,7.07
2019-03-29T10:59:30.044Z,5.07
2019-03-29T11:02:00.530Z,6.07
2019-03-29T11:04:32.027Z,5.63
2019-03-29T11:07:02.928Z,4.37
2019-03-29T11:09:33.191Z,8.50
2019-03-29T11:12:05.171Z,5.83
2019-03-29T11:14:35.487Z,16.17
2019-03-29T11:17:06.036Z,14.20
2019-03-29T11:19:36.346Z,5.03
2019-03-29T11:22:06.708Z,6.40
2019-03-29T11:28:11.686Z,6.10
2019-03-29T11:30:43.214Z,4.87
2019-03-29T11:33:13.559Z,3.77
2019-03-29T11:35:45.514Z,5.50
2019-03-29T11:38:15.866Z,6.93
2019-03-29T11:40:46.120Z,10.47
2019-03-29T11:43:26.439Z,7.23
2019-03-29T11:45:48.634Z,8.07
2019-03-29T11:48:19.009Z,4.00
2019-03-29T11:50:49.647Z,5.27
2019-03-29T11:53:19.968Z,4.83
2019-03-29T11:55:50.219Z,6.10
2019-03-29T11:58:20.529Z,5.40
2019-03-29T12:00:50.955Z,5.20
2019-03-29T12:03:21.191Z,4.87
2019-03-29T12:05:51.617Z,6.13
2019-03-29T12:11:38.855Z,4.23
2019-03-29T12:14:10.420Z,8.63
2019-03-29T12:16:40.831Z,4.17
2019-03-29T12:19:11.175Z,4.90
2019-03-29T12:21:41.377Z,6.03
2019-03-29T12:24:11.649Z,5.97
2019-03-29T12:26:41.968Z,8.20
2019-03-29T12:29:12.189Z,5.30
2019-03-29T12:31:42.585Z,5.37
2019-03-29T12:34:13.019Z,6.87
2019-03-29T12:36:45.927Z,5.37
2019-03-29T12:39:15.405Z,4.73
2019-03-29T12:41:45.633Z,4.87
2019-03-29T12:44:16.151Z,6.27
2019-03-29T12:46:46.591Z,7.33
2019-03-29T12:49:16.921Z,10.60
2019-03-29T12:51:48.567Z,5.07
2019-03-29T12:54:19.014Z,9.70
2019-03-29T12:56:49.373Z,6.30
2019-03-29T12:59:19.802Z,3.47
2019-03-29T13:01:50.082Z,8.93
2019-03-29T13:04:20.360Z,6.07
2019-03-29T13:06:51.979Z,6.40
2019-03-29T13:09:22.286Z,8.17
2019-03-29T13:11:52.609Z,6.07
2019-03-29T13:14:22.938Z,7.50
2019-03-29T13:16:53.271Z,6.53
2019-03-29T13:19:23.715Z,8.30
2019-03-29T13:21:53.939Z,11.60
2019-03-29T14:25:11.694Z,7.30
2019-03-29T14:27:41.987Z,9.33
2019-03-29T14:30:12.944Z,7.30
2019-03-29T14:32:43.313Z,14.80
2019-03-29T14:35:13.938Z,5.03
2019-03-29T14:37:44.334Z,6.77
2019-03-29T14:40:14.754Z,22.30
2019-03-29T14:42:45.100Z,22.07
2019-03-29T14:45:15.606Z,9.00
2019-03-29T14:47:46.336Z,8.17
2019-03-29T14:50:16.770Z,10.20
2019-03-29T14:52:47.046Z,12.17
2019-03-29T14:55:17.378Z,11.87
2019-03-29T14:57:48.969Z,11.83
2019-03-29T15:00:23.959Z,7.00
2019-03-29T15:02:54.276Z,7.67
2019-03-29T15:05:24.625Z,4.83
2019-03-29T15:07:54.981Z,6.23
2019-03-29T15:10:28.175Z,6.80
2019-03-29T15:12:58.500Z,6.77
2019-03-29T15:15:28.871Z,8.20
2019-03-29T15:17:59.419Z,6.77
2019-03-29T15:20:29.853Z,5.83
2019-03-29T15:23:00.325Z,7.00
2019-03-29T16:23:59.131Z,5.13
2019-03-29T16:26:29.634Z,5.20
2019-03-29T16:28:59.879Z,6.33
2019-03-29T16:31:30.145Z,5.77
2019-03-29T16:34:00.667Z,7.10
2019-03-29T16:36:31.083Z,5.67
2019-03-29T16:39:01.484Z,6.73
2019-03-29T16:41:31.703Z,16.13
2019-03-29T16:44:03.483Z,7.30
2019-03-29T16:46:34.095Z,9.33
2019-03-29T16:49:04.736Z,10.20
2019-03-29T16:51:34.988Z,7.07
2019-03-29T16:54:05.885Z,9.13
2019-03-29T16:56:36.190Z,7.57
2019-03-29T16:59:06.603Z,11.40
2019-03-29T17:01:38.223Z,10.53
2019-03-29T17:04:08.532Z,11.03
2019-03-29T17:06:38.818Z,9.93
2019-03-29T17:09:09.138Z,8.43
2019-03-29T17:11:40.741Z,11.47
2019-03-29T17:14:10.861Z,6.37
2019-03-29T17:16:42.279Z,7.57
2019-03-29T17:19:13.734Z,8.97
2019-03-29T17:21:44.042Z,8.67
2019-03-29T18:23:58.136Z,10.10
2019-03-29T18:26:28.406Z,10.23
2019-03-29T18:28:58.535Z,10.43
2019-03-29T18:31:28.991Z,13.67
2019-03-29T18:33:59.509Z,9.13
2019-03-29T18:36:30.090Z,10.43
2019-03-29T18:39:00.702Z,8.50
2019-03-29T18:41:30.999Z,12.93
2019-03-29T18:44:01.361Z,6.57
2019-03-29T18:46:44.016Z,8.30
2019-03-29T18:49:03.548Z,7.93
2019-03-29T18:51:33.771Z,12.73
2019-03-29T18:54:04.066Z,9.37
2019-03-29T18:56:34.688Z,10.07
2019-03-29T18:59:04.873Z,11.37
2019-03-29T19:01:35.241Z,9.60
2019-03-29T19:04:06.020Z,9.60
2019-03-29T19:06:36.276Z,8.90
2019-03-29T19:09:08.995Z,8.77
2019-03-29T19:11:39.384Z,7.87
2019-03-29T19:14:09.633Z,8.07
2019-03-29T19:16:41.510Z,12.00
2019-03-29T19:19:11.812Z,11.90
2019-03-29T19:21:42.152Z,17.00
2019-03-29T20:23:30.438Z,10.03
2019-03-29T20:26:00.903Z,10.90
2019-03-29T20:28:31.146Z,7.80
2019-03-29T20:31:01.704Z,10.33
2019-03-29T20:33:32.203Z,10.50
2019-03-29T20:36:03.012Z,10.13
2019-03-29T20:38:33.103Z,9.30
2019-03-29T20:41:03.555Z,10.63
2019-03-29T20:43:34.735Z,9.90
2019-03-29T20:46:05.168Z,9.17
2019-03-29T20:48:36.638Z,9.93
2019-03-29T20:51:07.300Z,8.83
2019-03-29T20:53:37.518Z,6.73
2019-03-29T20:56:07.966Z,7.70
2019-03-29T20:58:38.371Z,6.80
2019-03-29T21:01:08.883Z,6.73
2019-03-29T21:03:39.204Z,8.60
2019-03-29T21:06:11.010Z,7.20
2019-03-29T21:08:41.157Z,9.13
2019-03-29T21:11:11.759Z,7.67
2019-03-29T21:13:42.035Z,6.90
2019-03-29T21:16:12.473Z,9.70
2019-03-29T21:18:43.934Z,9.80
2019-03-29T21:21:14.504Z,9.23
2019-03-29T22:07:20.133Z,8.93
2019-03-29T22:09:50.399Z,7.97
2019-03-29T22:12:20.673Z,7.70
2019-03-29T22:14:51.115Z,10.33
2019-03-29T22:17:21.459Z,10.10
2019-03-29T22:19:51.758Z,13.83
2019-03-29T22:22:22.081Z,6.77
2019-03-29T22:24:52.463Z,7.17
2019-03-29T22:27:22.896Z,9.23
2019-03-29T22:29:53.333Z,8.23
2019-03-29T22:32:23.798Z,8.13
2019-03-29T22:34:54.282Z,8.00
2019-03-29T22:37:24.709Z,9.07
2019-03-29T22:39:55.012Z,8.27
2019-03-29T22:42:25.248Z,9.20
2019-03-29T22:44:55.488Z,10.07
2019-03-29T22:47:25.730Z,9.20
2019-03-29T22:49:56.237Z,8.30
2019-03-29T22:52:26.604Z,5.90
2019-03-29T22:54:57.003Z,12.90
2019-03-29T22:57:27.325Z,7.77
2019-03-29T22:59:57.591Z,11.80
2019-03-29T23:02:27.904Z,8.57
2019-03-29T23:04:58.299Z,7.27
2019-03-29T23:07:28.778Z,8.03
2019-03-29T23:09:59.205Z,6.67
2019-03-29T23:12:29.383Z,8.20
2019-03-29T23:15:00.392Z,7.07
2019-03-29T23:17:30.692Z,6.63
2019-03-29T23:20:00.976Z,7.87
2019-03-29T23:22:31.287Z,9.23
